sensor_id;sensor_type;location;lat;lon;timestamp;pressure;altitude;pressure_sealevel;temperature;humidity
27685;BME280;46113;50.130;8.526;2023-08-06T00:02:20;98249.09;;;12.67;79.94
27685;BME280;46113;50.130;8.526;2023-08-06T00:04:47;98246.44;;;12.67;79.52
27685;BME280;46113;50.130;8.526;2023-08-06T00:07:14;98241.84;;;12.69;79.68
27685;BME280;46113;50.130;8.526;2023-08-06T00:09:41;98246.78;;;12.74;79.47
27685;BME280;46113;50.130;8.526;2023-08-06T00:12:08;98240.22;;;12.78;79.08
27685;BME280;46113;50.130;8.526;2023-08-06T00:14:34;98246.50;;;12.77;78.82
27685;BME280;46113;50.130;8.526;2023-08-06T00:17:01;98236.75;;;12.78;78.82
27685;BME280;46113;50.130;8.526;2023-08-06T00:19:28;98241.84;;;12.69;79.31
27685;BME280;46113;50.130;8.526;2023-08-06T00:21:56;98235.84;;;12.67;79.36
27685;BME280;46113;50.130;8.526;2023-08-06T00:24:23;98225.81;;;12.71;78.93
27685;BME280;46113;50.130;8.526;2023-08-06T00:26:49;98225.34;;;12.66;79.24
27685;BME280;46113;50.130;8.526;2023-08-06T00:29:16;98229.09;;;12.63;79.11
27685;BME280;46113;50.130;8.526;2023-08-06T00:31:43;98226.78;;;12.70;78.96
27685;BME280;46113;50.130;8.526;2023-08-06T00:34:10;98225.91;;;12.69;79.02
27685;BME280;46113;50.130;8.526;2023-08-06T00:36:45;98239.19;;;12.69;78.88
27685;BME280;46113;50.130;8.526;2023-08-06T00:39:12;98237.28;;;12.71;79.40
27685;BME280;46113;50.130;8.526;2023-08-06T00:41:39;98223.84;;;12.73;79.22
27685;BME280;46113;50.130;8.526;2023-08-06T00:44:09;98230.00;;;12.73;79.22
27685;BME280;46113;50.130;8.526;2023-08-06T00:46:55;98225.16;;;12.79;79.09
27685;BME280;46113;50.130;8.526;2023-08-06T00:49:59;98220.09;;;12.76;79.16
27685;BME280;46113;50.130;8.526;2023-08-06T00:52:27;98218.41;;;12.75;78.92
27685;BME280;46113;50.130;8.526;2023-08-06T00:54:54;98214.09;;;12.73;79.04
27685;BME280;46113;50.130;8.526;2023-08-06T00:57:24;98214.34;;;12.70;78.77
27685;BME280;46113;50.130;8.526;2023-08-06T00:59:55;98213.31;;;12.62;79.35
27685;BME280;46113;50.130;8.526;2023-08-06T01:02:34;98209.53;;;12.64;79.11
27685;BME280;46113;50.130;8.526;2023-08-06T01:05:01;98208.13;;;12.60;79.18
27685;BME280;46113;50.130;8.526;2023-08-06T01:13:46;98193.91;;;12.61;78.92
27685;BME280;46113;50.130;8.526;2023-08-06T01:16:17;98188.44;;;12.63;78.82
27685;BME280;46113;50.130;8.526;2023-08-06T01:18:47;98186.88;;;12.60;78.81
27685;BME280;46113;50.130;8.526;2023-08-06T01:21:17;98182.03;;;12.65;79.08
27685;BME280;46113;50.130;8.526;2023-08-06T01:23:45;98171.81;;;12.60;79.08
27685;BME280;46113;50.130;8.526;2023-08-06T01:31:43;98172.69;;;12.61;79.11
27685;BME280;46113;50.130;8.526;2023-08-06T01:34:17;98165.53;;;12.62;79.24
27685;BME280;46113;50.130;8.526;2023-08-06T01:36:44;98167.22;;;12.63;79.33
27685;BME280;46113;50.130;8.526;2023-08-06T01:39:12;98159.25;;;12.63;79.32
27685;BME280;46113;50.130;8.526;2023-08-06T01:41:38;98162.78;;;12.63;79.27
27685;BME280;46113;50.130;8.526;2023-08-06T01:44:05;98155.78;;;12.62;79.04
27685;BME280;46113;50.130;8.526;2023-08-06T01:46:32;98146.78;;;12.53;79.34
27685;BME280;46113;50.130;8.526;2023-08-06T01:48:59;98141.22;;;12.56;79.26
27685;BME280;46113;50.130;8.526;2023-08-06T01:51:26;98161.75;;;12.54;79.21
27685;BME280;46113;50.130;8.526;2023-08-06T01:53:53;98163.09;;;12.49;79.14
27685;BME280;46113;50.130;8.526;2023-08-06T01:56:20;98152.34;;;12.50;79.38
27685;BME280;46113;50.130;8.526;2023-08-06T01:58:47;98141.75;;;12.50;79.25
27685;BME280;46113;50.130;8.526;2023-08-06T02:01:14;98136.09;;;12.43;79.48
27685;BME280;46113;50.130;8.526;2023-08-06T02:03:41;98133.91;;;12.49;78.86
27685;BME280;46113;50.130;8.526;2023-08-06T02:06:09;98133.31;;;12.45;78.88
27685;BME280;46113;50.130;8.526;2023-08-06T02:08:36;98127.00;;;12.36;78.91
27685;BME280;46113;50.130;8.526;2023-08-06T02:11:03;98125.28;;;12.35;79.07
27685;BME280;46113;50.130;8.526;2023-08-06T02:13:30;98121.81;;;12.35;78.92
27685;BME280;46113;50.130;8.526;2023-08-06T02:15:57;98125.44;;;12.33;79.12
27685;BME280;46113;50.130;8.526;2023-08-06T02:18:27;98113.91;;;12.23;79.23
27685;BME280;46113;50.130;8.526;2023-08-06T02:21:04;98117.97;;;12.27;79.22
27685;BME280;46113;50.130;8.526;2023-08-06T02:23:42;98115.06;;;12.30;79.23
27685;BME280;46113;50.130;8.526;2023-08-06T02:26:09;98113.41;;;12.29;79.26
27685;BME280;46113;50.130;8.526;2023-08-06T02:28:40;98109.66;;;12.32;79.14
27685;BME280;46113;50.130;8.526;2023-08-06T02:31:41;98108.44;;;12.36;79.09
27685;BME280;46113;50.130;8.526;2023-08-06T02:34:08;98105.50;;;12.39;79.69
27685;BME280;46113;50.130;8.526;2023-08-06T02:36:35;98100.19;;;12.39;79.54
27685;BME280;46113;50.130;8.526;2023-08-06T02:39:02;98098.28;;;12.41;79.67
27685;BME280;46113;50.130;8.526;2023-08-06T02:41:29;98096.97;;;12.36;79.51
27685;BME280;46113;50.130;8.526;2023-08-06T02:43:56;98095.75;;;12.40;79.29
27685;BME280;46113;50.130;8.526;2023-08-06T02:46:23;98093.16;;;12.28;79.47
27685;BME280;46113;50.130;8.526;2023-08-06T02:48:50;98088.69;;;12.29;79.61
27685;BME280;46113;50.130;8.526;2023-08-06T02:51:17;98087.06;;;12.38;79.43
27685;BME280;46113;50.130;8.526;2023-08-06T02:53:44;98076.91;;;12.43;79.36
27685;BME280;46113;50.130;8.526;2023-08-06T02:56:14;98077.88;;;12.42;79.32
27685;BME280;46113;50.130;8.526;2023-08-06T02:59:04;98082.09;;;12.44;79.73
27685;BME280;46113;50.130;8.526;2023-08-06T03:01:42;98073.03;;;12.47;79.40
27685;BME280;46113;50.130;8.526;2023-08-06T03:04:20;98072.50;;;12.53;79.43
27685;BME280;46113;50.130;8.526;2023-08-06T03:06:51;98068.69;;;12.46;79.68
27685;BME280;46113;50.130;8.526;2023-08-06T03:09:22;98070.69;;;12.54;79.60
27685;BME280;46113;50.130;8.526;2023-08-06T03:11:51;98059.97;;;12.55;79.19
27685;BME280;46113;50.130;8.526;2023-08-06T03:14:38;98058.00;;;12.57;79.63
27685;BME280;46113;50.130;8.526;2023-08-06T03:17:06;98060.34;;;12.51;80.30
27685;BME280;46113;50.130;8.526;2023-08-06T03:19:35;98057.41;;;12.44;80.81
27685;BME280;46113;50.130;8.526;2023-08-06T03:22:04;98051.28;;;12.53;79.91
27685;BME280;46113;50.130;8.526;2023-08-06T03:24:33;98052.19;;;12.64;79.75
27685;BME280;46113;50.130;8.526;2023-08-06T03:27:00;98051.22;;;12.65;79.43
27685;BME280;46113;50.130;8.526;2023-08-06T03:29:29;98044.09;;;12.65;79.64
27685;BME280;46113;50.130;8.526;2023-08-06T03:31:59;98046.03;;;12.63;79.73
27685;BME280;46113;50.130;8.526;2023-08-06T03:34:26;98039.28;;;12.49;79.27
27685;BME280;46113;50.130;8.526;2023-08-06T03:36:53;98048.00;;;12.40;80.14
27685;BME280;46113;50.130;8.526;2023-08-06T03:39:20;98045.81;;;12.45;79.91
27685;BME280;46113;50.130;8.526;2023-08-06T03:41:47;98046.41;;;12.58;79.20
27685;BME280;46113;50.130;8.526;2023-08-06T03:44:15;98043.47;;;12.52;79.52
27685;BME280;46113;50.130;8.526;2023-08-06T03:46:42;98044.59;;;12.49;79.34
27685;BME280;46113;50.130;8.526;2023-08-06T03:49:09;98043.91;;;12.57;78.94
27685;BME280;46113;50.130;8.526;2023-08-06T03:51:47;98041.13;;;12.58;79.01
27685;BME280;46113;50.130;8.526;2023-08-06T03:54:14;98043.75;;;12.58;79.17
27685;BME280;46113;50.130;8.526;2023-08-06T03:56:41;98035.78;;;12.49;79.00
27685;BME280;46113;50.130;8.526;2023-08-06T03:59:08;98035.53;;;12.52;79.13
27685;BME280;46113;50.130;8.526;2023-08-06T04:01:35;98029.69;;;12.58;79.07
27685;BME280;46113;50.130;8.526;2023-08-06T04:04:02;98028.72;;;12.38;79.21
27685;BME280;46113;50.130;8.526;2023-08-06T04:06:36;98020.09;;;12.45;78.93
27685;BME280;46113;50.130;8.526;2023-08-06T04:09:09;98019.41;;;12.43;78.87
27685;BME280;46113;50.130;8.526;2023-08-06T04:11:36;98020.50;;;12.41;78.30
27685;BME280;46113;50.130;8.526;2023-08-06T04:14:03;98014.34;;;12.40;79.24
27685;BME280;46113;50.130;8.526;2023-08-06T04:16:30;98017.34;;;12.47;78.34
27685;BME280;46113;50.130;8.526;2023-08-06T04:18:57;98018.06;;;12.49;78.09
27685;BME280;46113;50.130;8.526;2023-08-06T04:21:25;98015.22;;;12.41;77.94
27685;BME280;46113;50.130;8.526;2023-08-06T04:23:52;98019.38;;;12.12;79.69
27685;BME280;46113;50.130;8.526;2023-08-06T04:26:19;98015.75;;;12.13;79.22
27685;BME280;46113;50.130;8.526;2023-08-06T04:28:49;98008.81;;;12.22;78.25
27685;BME280;46113;50.130;8.526;2023-08-06T04:31:21;98012.31;;;12.23;78.12
27685;BME280;46113;50.130;8.526;2023-08-06T04:34:09;98012.75;;;12.06;78.81
27685;BME280;46113;50.130;8.526;2023-08-06T04:36:55;98010.38;;;12.03;78.90
27685;BME280;46113;50.130;8.526;2023-08-06T04:39:51;98011.13;;;12.15;77.99
27685;BME280;46113;50.130;8.526;2023-08-06T04:42:35;98007.91;;;12.12;78.23
27685;BME280;46113;50.130;8.526;2023-08-06T04:45:07;98003.50;;;12.22;78.09
27685;BME280;46113;50.130;8.526;2023-08-06T04:47:34;97993.50;;;12.26;78.17
27685;BME280;46113;50.130;8.526;2023-08-06T04:50:01;97991.34;;;12.19;78.14
27685;BME280;46113;50.130;8.526;2023-08-06T04:52:28;97992.53;;;12.27;78.08
27685;BME280;46113;50.130;8.526;2023-08-06T04:55:04;97993.09;;;12.30;78.61
27685;BME280;46113;50.130;8.526;2023-08-06T04:57:44;98000.81;;;12.33;78.67
27685;BME280;46113;50.130;8.526;2023-08-06T05:00:57;97993.91;;;12.52;78.11
27685;BME280;46113;50.130;8.526;2023-08-06T05:04:38;97988.88;;;12.80;77.86
27685;BME280;46113;50.130;8.526;2023-08-06T05:07:19;97995.88;;;12.91;77.12
27685;BME280;46113;50.130;8.526;2023-08-06T05:09:59;97999.84;;;12.66;76.71
27685;BME280;46113;50.130;8.526;2023-08-06T05:13:08;98000.47;;;12.89;75.62
27685;BME280;46113;50.130;8.526;2023-08-06T05:16:15;97997.97;;;13.29;74.58
27685;BME280;46113;50.130;8.526;2023-08-06T05:18:54;97997.53;;;13.23;74.23
27685;BME280;46113;50.130;8.526;2023-08-06T05:21:24;97995.72;;;13.44;73.45
27685;BME280;46113;50.130;8.526;2023-08-06T05:27:13;98001.75;;;13.46;73.91
27685;BME280;46113;50.130;8.526;2023-08-06T05:30:11;98009.19;;;13.52;74.20
27685;BME280;46113;50.130;8.526;2023-08-06T05:32:38;98004.97;;;13.79;74.03
27685;BME280;46113;50.130;8.526;2023-08-06T05:35:05;98005.00;;;14.09;74.41
27685;BME280;46113;50.130;8.526;2023-08-06T05:40:55;97991.31;;;15.17;72.44
27685;BME280;46113;50.130;8.526;2023-08-06T05:43:58;97996.56;;;15.09;68.33
27685;BME280;46113;50.130;8.526;2023-08-06T05:46:53;97999.75;;;15.13;67.07
27685;BME280;46113;50.130;8.526;2023-08-06T05:52:53;98013.91;;;14.75;66.30
27685;BME280;46113;50.130;8.526;2023-08-06T06:23:36;98015.66;;;12.77;78.45
27685;BME280;46113;50.130;8.526;2023-08-06T06:27:19;98015.84;;;12.95;77.41
27685;BME280;46113;50.130;8.526;2023-08-06T06:39:24;98015.88;;;12.64;78.46
27685;BME280;46113;50.130;8.526;2023-08-06T06:42:22;98016.94;;;12.83;77.76
27685;BME280;46113;50.130;8.526;2023-08-06T06:45:16;98019.16;;;12.46;79.90
27685;BME280;46113;50.130;8.526;2023-08-06T06:47:51;98021.22;;;12.43;79.11
27685;BME280;46113;50.130;8.526;2023-08-06T06:53:56;98018.34;;;12.56;79.12
27685;BME280;46113;50.130;8.526;2023-08-06T06:57:01;98006.94;;;12.65;79.78
27685;BME280;46113;50.130;8.526;2023-08-06T07:03:19;98011.09;;;12.89;78.78
27685;BME280;46113;50.130;8.526;2023-08-06T07:05:56;98004.66;;;12.82;79.40
27685;BME280;46113;50.130;8.526;2023-08-06T08:47:52;97980.91;;;13.31;76.03
27685;BME280;46113;50.130;8.526;2023-08-06T09:20:54;97979.78;;;14.23;71.35
27685;BME280;46113;50.130;8.526;2023-08-06T09:27:46;97985.59;;;14.46;71.68
27685;BME280;46113;50.130;8.526;2023-08-06T09:30:39;97984.56;;;13.79;72.33
27685;BME280;46113;50.130;8.526;2023-08-06T11:20:20;97941.44;;;16.27;63.63
27685;BME280;46113;50.130;8.526;2023-08-06T11:22:50;97947.88;;;15.53;64.41
27685;BME280;46113;50.130;8.526;2023-08-06T13:27:11;98067.66;;;12.16;79.45
27685;BME280;46113;50.130;8.526;2023-08-06T16:46:24;98303.91;;;10.95;84.04
27685;BME280;46113;50.130;8.526;2023-08-06T16:49:24;98304.13;;;10.92;83.88
27685;BME280;46113;50.130;8.526;2023-08-06T16:51:56;98310.09;;;10.83;83.42
27685;BME280;46113;50.130;8.526;2023-08-06T17:12:00;98321.03;;;10.41;84.62
27685;BME280;46113;50.130;8.526;2023-08-06T17:14:40;98333.72;;;10.48;84.90
27685;BME280;46113;50.130;8.526;2023-08-06T17:17:33;98325.97;;;10.58;84.10
27685;BME280;46113;50.130;8.526;2023-08-06T17:20:26;98340.16;;;10.44;85.15
27685;BME280;46113;50.130;8.526;2023-08-06T17:22:58;98335.06;;;10.54;84.16
27685;BME280;46113;50.130;8.526;2023-08-06T17:25:31;98336.66;;;10.57;83.61
27685;BME280;46113;50.130;8.526;2023-08-06T17:28:01;98339.84;;;10.49;84.33
27685;BME280;46113;50.130;8.526;2023-08-06T17:30:28;98346.75;;;10.39;85.60
27685;BME280;46113;50.130;8.526;2023-08-06T17:33:01;98342.38;;;10.51;84.65
27685;BME280;46113;50.130;8.526;2023-08-06T17:35:56;98343.56;;;10.71;84.29
27685;BME280;46113;50.130;8.526;2023-08-06T17:38:58;98339.72;;;10.51;84.19
27685;BME280;46113;50.130;8.526;2023-08-06T17:41:58;98346.66;;;10.65;84.54
27685;BME280;46113;50.130;8.526;2023-08-06T17:44:44;98341.09;;;10.56;84.29
27685;BME280;46113;50.130;8.526;2023-08-06T17:47:31;98344.59;;;10.57;84.69
27685;BME280;46113;50.130;8.526;2023-08-06T17:50:39;98330.59;;;10.55;84.82
27685;BME280;46113;50.130;8.526;2023-08-06T17:56:16;98337.75;;;10.41;84.61
27685;BME280;46113;50.130;8.526;2023-08-06T17:59:31;98350.19;;;10.52;84.89
27685;BME280;46113;50.130;8.526;2023-08-06T18:02:41;98351.50;;;10.71;84.73
27685;BME280;46113;50.130;8.526;2023-08-06T18:05:16;98341.94;;;10.57;84.46
27685;BME280;46113;50.130;8.526;2023-08-06T18:11:50;98358.38;;;10.73;84.46
27685;BME280;46113;50.130;8.526;2023-08-06T18:18:09;98343.47;;;10.72;84.83
27685;BME280;46113;50.130;8.526;2023-08-06T18:23:59;98352.13;;;10.50;85.51
27685;BME280;46113;50.130;8.526;2023-08-06T18:27:05;98366.00;;;10.65;85.33
27685;BME280;46113;50.130;8.526;2023-08-06T18:30:22;98365.94;;;10.54;86.04
27685;BME280;46113;50.130;8.526;2023-08-06T18:33:31;98363.31;;;10.54;85.82
27685;BME280;46113;50.130;8.526;2023-08-06T18:40:18;98370.28;;;10.55;84.86
27685;BME280;46113;50.130;8.526;2023-08-06T18:43:26;98371.94;;;10.31;86.10
27685;BME280;46113;50.130;8.526;2023-08-06T18:58:04;98375.28;;;10.46;85.44
27685;BME280;46113;50.130;8.526;2023-08-06T19:01:01;98384.25;;;10.57;85.06
27685;BME280;46113;50.130;8.526;2023-08-06T19:03:58;98384.25;;;10.57;84.99
27685;BME280;46113;50.130;8.526;2023-08-06T19:06:25;98389.75;;;10.54;85.04
27685;BME280;46113;50.130;8.526;2023-08-06T19:12:33;98377.81;;;10.48;84.76
27685;BME280;46113;50.130;8.526;2023-08-06T19:15:20;98384.00;;;10.60;84.32
27685;BME280;46113;50.130;8.526;2023-08-06T19:17:47;98388.03;;;10.66;84.40
27685;BME280;46113;50.130;8.526;2023-08-06T19:20:25;98373.88;;;10.54;84.94
27685;BME280;46113;50.130;8.526;2023-08-06T19:23:17;98389.44;;;10.45;84.79
27685;BME280;46113;50.130;8.526;2023-08-06T19:26:32;98396.53;;;10.45;84.72
27685;BME280;46113;50.130;8.526;2023-08-06T19:29:00;98402.72;;;10.19;85.55
27685;BME280;46113;50.130;8.526;2023-08-06T19:31:28;98394.06;;;10.17;86.02
27685;BME280;46113;50.130;8.526;2023-08-06T19:33:54;98395.94;;;10.41;85.43
27685;BME280;46113;50.130;8.526;2023-08-06T19:36:21;98387.22;;;10.52;84.88
27685;BME280;46113;50.130;8.526;2023-08-06T19:38:48;98395.44;;;10.60;84.47
27685;BME280;46113;50.130;8.526;2023-08-06T19:41:15;98383.63;;;10.40;84.93
27685;BME280;46113;50.130;8.526;2023-08-06T19:43:42;98393.84;;;10.20;84.77
27685;BME280;46113;50.130;8.526;2023-08-06T19:46:10;98394.00;;;10.43;84.36
27685;BME280;46113;50.130;8.526;2023-08-06T19:48:37;98395.78;;;10.43;84.60
27685;BME280;46113;50.130;8.526;2023-08-06T19:51:04;98387.13;;;10.41;85.00
27685;BME280;46113;50.130;8.526;2023-08-06T19:53:32;98389.47;;;10.32;85.01
27685;BME280;46113;50.130;8.526;2023-08-06T19:56:02;98385.47;;;10.27;85.29
27685;BME280;46113;50.130;8.526;2023-08-06T19:58:31;98405.75;;;10.39;84.79
27685;BME280;46113;50.130;8.526;2023-08-06T20:01:01;98397.91;;;10.38;84.84
27685;BME280;46113;50.130;8.526;2023-08-06T20:03:29;98392.03;;;10.21;85.08
27685;BME280;46113;50.130;8.526;2023-08-06T20:06:05;98394.47;;;10.24;85.03
27685;BME280;46113;50.130;8.526;2023-08-06T20:08:33;98408.19;;;10.42;84.25
27685;BME280;46113;50.130;8.526;2023-08-06T20:11:06;98396.38;;;10.22;84.47
27685;BME280;46113;50.130;8.526;2023-08-06T20:13:33;98384.22;;;10.19;84.60
27685;BME280;46113;50.130;8.526;2023-08-06T20:19:38;98390.84;;;10.38;84.19
27685;BME280;46113;50.130;8.526;2023-08-06T20:22:35;98391.28;;;10.32;84.38
27685;BME280;46113;50.130;8.526;2023-08-06T20:25:24;98390.56;;;10.17;85.09
27685;BME280;46113;50.130;8.526;2023-08-06T20:27:53;98395.97;;;10.28;85.57
27685;BME280;46113;50.130;8.526;2023-08-06T20:30:20;98392.44;;;10.28;85.31
27685;BME280;46113;50.130;8.526;2023-08-06T20:32:47;98387.09;;;10.03;85.65
27685;BME280;46113;50.130;8.526;2023-08-06T20:35:14;98384.09;;;10.21;85.02
27685;BME280;46113;50.130;8.526;2023-08-06T20:37:44;98394.47;;;10.24;84.50
27685;BME280;46113;50.130;8.526;2023-08-06T20:40:11;98383.34;;;10.32;84.80
27685;BME280;46113;50.130;8.526;2023-08-06T20:42:38;98386.63;;;10.35;84.45
27685;BME280;46113;50.130;8.526;2023-08-06T20:45:06;98389.16;;;10.37;84.78
27685;BME280;46113;50.130;8.526;2023-08-06T20:47:34;98388.78;;;10.17;84.30
27685;BME280;46113;50.130;8.526;2023-08-06T20:50:01;98394.56;;;10.22;85.29
27685;BME280;46113;50.130;8.526;2023-08-06T20:52:29;98395.44;;;10.23;84.55
27685;BME280;46113;50.130;8.526;2023-08-06T20:54:56;98397.84;;;10.26;85.16
27685;BME280;46113;50.130;8.526;2023-08-06T20:57:22;98398.69;;;10.27;85.10
27685;BME280;46113;50.130;8.526;2023-08-06T20:59:49;98403.53;;;10.33;84.36
27685;BME280;46113;50.130;8.526;2023-08-06T21:02:16;98402.72;;;10.19;85.06
27685;BME280;46113;50.130;8.526;2023-08-06T21:04:42;98396.50;;;10.20;85.13
27685;BME280;46113;50.130;8.526;2023-08-06T21:07:09;98393.19;;;10.30;84.69
27685;BME280;46113;50.130;8.526;2023-08-06T21:09:36;98404.19;;;10.24;85.04
27685;BME280;46113;50.130;8.526;2023-08-06T21:12:03;98395.97;;;10.15;84.84
27685;BME280;46113;50.130;8.526;2023-08-06T21:14:29;98404.72;;;10.29;84.75
27685;BME280;46113;50.130;8.526;2023-08-06T21:16:56;98412.75;;;10.01;84.92
27685;BME280;46113;50.130;8.526;2023-08-06T21:19:23;98406.63;;;10.27;84.96
27685;BME280;46113;50.130;8.526;2023-08-06T21:21:50;98407.47;;;10.14;84.92
27685;BME280;46113;50.130;8.526;2023-08-06T21:24:16;98413.38;;;10.05;85.40
27685;BME280;46113;50.130;8.526;2023-08-06T21:26:43;98409.69;;;9.94;85.57
27685;BME280;46113;50.130;8.526;2023-08-06T21:29:10;98421.13;;;10.08;84.63
27685;BME280;46113;50.130;8.526;2023-08-06T21:31:36;98415.19;;;10.17;84.77
27685;BME280;46113;50.130;8.526;2023-08-06T21:34:03;98413.63;;;10.15;84.97
27685;BME280;46113;50.130;8.526;2023-08-06T21:36:30;98421.84;;;10.10;84.78
27685;BME280;46113;50.130;8.526;2023-08-06T21:38:57;98430.53;;;10.12;84.53
27685;BME280;46113;50.130;8.526;2023-08-06T21:41:24;98423.44;;;10.00;85.39
27685;BME280;46113;50.130;8.526;2023-08-06T21:43:51;98427.47;;;9.92;85.10
27685;BME280;46113;50.130;8.526;2023-08-06T21:46:19;98421.56;;;10.02;85.21
27685;BME280;46113;50.130;8.526;2023-08-06T21:48:49;98417.22;;;10.01;85.22
27685;BME280;46113;50.130;8.526;2023-08-06T21:51:18;98414.06;;;10.08;85.07
27685;BME280;46113;50.130;8.526;2023-08-06T21:53:46;98423.66;;;10.22;84.45
27685;BME280;46113;50.130;8.526;2023-08-06T21:56:14;98426.94;;;10.13;85.10
27685;BME280;46113;50.130;8.526;2023-08-06T22:01:10;98431.78;;;10.19;84.92
27685;BME280;46113;50.130;8.526;2023-08-06T22:03:39;98425.84;;;10.29;84.33
27685;BME280;46113;50.130;8.526;2023-08-06T22:06:06;98435.91;;;10.24;84.14
27685;BME280;46113;50.130;8.526;2023-08-06T22:08:34;98431.50;;;10.11;85.08
27685;BME280;46113;50.130;8.526;2023-08-06T22:11:01;98442.59;;;9.90;85.54
27685;BME280;46113;50.130;8.526;2023-08-06T22:13:29;98435.28;;;10.07;85.13
27685;BME280;46113;50.130;8.526;2023-08-06T22:15:56;98435.06;;;10.10;85.11
27685;BME280;46113;50.130;8.526;2023-08-06T22:18:23;98448.59;;;10.05;85.55
27685;BME280;46113;50.130;8.526;2023-08-06T22:20:52;98443.84;;;9.98;85.95
27685;BME280;46113;50.130;8.526;2023-08-06T22:23:21;98442.78;;;10.00;85.86
27685;BME280;46113;50.130;8.526;2023-08-06T22:25:48;98448.50;;;10.07;85.76
27685;BME280;46113;50.130;8.526;2023-08-06T22:28:14;98458.97;;;9.95;86.09
27685;BME280;46113;50.130;8.526;2023-08-06T22:30:41;98463.81;;;10.02;85.54
27685;BME280;46113;50.130;8.526;2023-08-06T22:33:08;98467.16;;;9.78;85.95
27685;BME280;46113;50.130;8.526;2023-08-06T22:35:35;98461.59;;;9.82;85.47
27685;BME280;46113;50.130;8.526;2023-08-06T22:38:01;98466.38;;;10.03;85.28
27685;BME280;46113;50.130;8.526;2023-08-06T22:40:28;98473.25;;;10.06;85.43
27685;BME280;46113;50.130;8.526;2023-08-06T22:42:54;98471.44;;;10.06;85.18
27685;BME280;46113;50.130;8.526;2023-08-06T22:45:21;98477.75;;;9.91;85.69
27685;BME280;46113;50.130;8.526;2023-08-06T22:47:48;98473.31;;;9.78;85.95
27685;BME280;46113;50.130;8.526;2023-08-06T22:50:14;98487.34;;;9.79;86.27
27685;BME280;46113;50.130;8.526;2023-08-06T22:52:42;98487.78;;;9.86;86.21
27685;BME280;46113;50.130;8.526;2023-08-06T22:55:12;98498.44;;;9.84;85.88
27685;BME280;46113;50.130;8.526;2023-08-06T22:57:58;98496.50;;;9.73;86.10
27685;BME280;46113;50.130;8.526;2023-08-06T23:00:30;98500.69;;;9.77;85.84
27685;BME280;46113;50.130;8.526;2023-08-06T23:03:03;98501.31;;;9.81;85.90
27685;BME280;46113;50.130;8.526;2023-08-06T23:05:38;98505.06;;;10.04;85.14
27685;BME280;46113;50.130;8.526;2023-08-06T23:08:09;98502.69;;;10.00;85.19
27685;BME280;46113;50.130;8.526;2023-08-06T23:10:36;98509.25;;;9.94;85.43
27685;BME280;46113;50.130;8.526;2023-08-06T23:13:05;98509.25;;;9.94;85.09
27685;BME280;46113;50.130;8.526;2023-08-06T23:15:33;98525.19;;;9.79;85.31
27685;BME280;46113;50.130;8.526;2023-08-06T23:18:22;98528.69;;;9.80;85.49
27685;BME280;46113;50.130;8.526;2023-08-06T23:20:59;98523.53;;;9.91;84.75
27685;BME280;46113;50.130;8.526;2023-08-06T23:23:26;98532.47;;;9.76;84.92
27685;BME280;46113;50.130;8.526;2023-08-06T23:25:53;98531.31;;;9.80;84.72
27685;BME280;46113;50.130;8.526;2023-08-06T23:28:27;98542.75;;;9.93;84.13
27685;BME280;46113;50.130;8.526;2023-08-06T23:30:53;98549.44;;;9.99;84.12
27685;BME280;46113;50.130;8.526;2023-08-06T23:33:27;98537.91;;;9.73;84.08
27685;BME280;46113;50.130;8.526;2023-08-06T23:35:58;98550.22;;;9.87;84.64
27685;BME280;46113;50.130;8.526;2023-08-06T23:38:31;98549.16;;;9.76;84.45
27685;BME280;46113;50.130;8.526;2023-08-06T23:41:02;98546.53;;;9.89;84.42
27685;BME280;46113;50.130;8.526;2023-08-06T23:43:34;98543.81;;;9.91;84.41
27685;BME280;46113;50.130;8.526;2023-08-06T23:46:17;98548.38;;;9.74;84.84
27685;BME280;46113;50.130;8.526;2023-08-06T23:48:55;98543.88;;;9.62;84.88
27685;BME280;46113;50.130;8.526;2023-08-06T23:51:35;98543.34;;;9.84;84.40
27685;BME280;46113;50.130;8.526;2023-08-06T23:54:27;98550.69;;;9.93;83.53
27685;BME280;46113;50.130;8.526;2023-08-06T23:57:01;98551.94;;;9.88;84.35
27685;BME280;46113;50.130;8.526;2023-08-06T23:59:36;98545.28;;;9.82;84.30
